sensor_id;sensor_type;location;lat;lon;timestamp;temperature;humidity
70366;DHT22;57787;48.216;12.396;2023-04-15T00:00:57;6.20;87.50
70366;DHT22;57787;48.216;12.396;2023-04-15T00:03:25;6.20;87.50
70366;DHT22;57787;48.216;12.396;2023-04-15T00:05:53;6.20;87.60
70366;DHT22;57787;48.216;12.396;2023-04-15T00:08:19;6.20;87.30
70366;DHT22;57787;48.216;12.396;2023-04-15T00:10:46;6.20;87.60
70366;DHT22;57787;48.216;12.396;2023-04-15T00:13:13;6.30;87.30
70366;DHT22;57787;48.216;12.396;2023-04-15T00:15:41;6.30;87.50
70366;DHT22;57787;48.216;12.396;2023-04-15T00:18:09;6.30;87.60
70366;DHT22;57787;48.216;12.396;2023-04-15T00:20:35;6.20;87.70
70366;DHT22;57787;48.216;12.396;2023-04-15T00:23:02;6.20;87.60
70366;DHT22;57787;48.216;12.396;2023-04-15T00:25:30;6.20;87.40
70366;DHT22;57787;48.216;12.396;2023-04-15T00:27:57;6.20;87.70
70366;DHT22;57787;48.216;12.396;2023-04-15T00:30:24;6.20;87.60
70366;DHT22;57787;48.216;12.396;2023-04-15T00:32:52;6.20;87.50
70366;DHT22;57787;48.216;12.396;2023-04-15T00:35:19;6.30;87.30
70366;DHT22;57787;48.216;12.396;2023-04-15T00:37:46;6.30;87.40
70366;DHT22;57787;48.216;12.396;2023-04-15T00:40:13;6.30;87.60
70366;DHT22;57787;48.216;12.396;2023-04-15T00:42:43;6.30;87.30
70366;DHT22;57787;48.216;12.396;2023-04-15T00:45:10;6.30;87.70
70366;DHT22;57787;48.216;12.396;2023-04-15T00:47:38;6.20;87.50
70366;DHT22;57787;48.216;12.396;2023-04-15T00:50:07;6.30;87.70
70366;DHT22;57787;48.216;12.396;2023-04-15T00:52:34;6.30;87.50
70366;DHT22;57787;48.216;12.396;2023-04-15T00:55:01;6.30;87.60
70366;DHT22;57787;48.216;12.396;2023-04-15T00:57:31;6.30;87.60
70366;DHT22;57787;48.216;12.396;2023-04-15T00:59:58;6.30;87.70
70366;DHT22;57787;48.216;12.396;2023-04-15T01:02:26;6.30;87.90
70366;DHT22;57787;48.216;12.396;2023-04-15T01:04:53;6.20;87.90
70366;DHT22;57787;48.216;12.396;2023-04-15T01:07:20;6.30;87.90
70366;DHT22;57787;48.216;12.396;2023-04-15T01:09:46;6.30;87.80
70366;DHT22;57787;48.216;12.396;2023-04-15T01:12:14;6.30;87.70
70366;DHT22;57787;48.216;12.396;2023-04-15T01:14:42;6.30;87.70
70366;DHT22;57787;48.216;12.396;2023-04-15T01:17:09;6.20;87.70
70366;DHT22;57787;48.216;12.396;2023-04-15T01:19:35;6.20;87.80
70366;DHT22;57787;48.216;12.396;2023-04-15T01:22:02;6.20;87.60
70366;DHT22;57787;48.216;12.396;2023-04-15T01:24:31;6.20;87.70
70366;DHT22;57787;48.216;12.396;2023-04-15T01:26:58;6.20;87.80
70366;DHT22;57787;48.216;12.396;2023-04-15T01:29:25;6.20;87.70
70366;DHT22;57787;48.216;12.396;2023-04-15T01:31:53;6.20;87.50
70366;DHT22;57787;48.216;12.396;2023-04-15T01:34:20;6.20;87.60
70366;DHT22;57787;48.216;12.396;2023-04-15T01:36:49;6.20;87.50
70366;DHT22;57787;48.216;12.396;2023-04-15T01:39:16;6.20;87.50
70366;DHT22;57787;48.216;12.396;2023-04-15T01:41:43;6.20;87.50
70366;DHT22;57787;48.216;12.396;2023-04-15T01:44:10;6.20;87.40
70366;DHT22;57787;48.216;12.396;2023-04-15T01:46:37;6.20;87.70
70366;DHT22;57787;48.216;12.396;2023-04-15T01:49:03;6.20;87.50
70366;DHT22;57787;48.216;12.396;2023-04-15T01:51:30;6.20;87.50
70366;DHT22;57787;48.216;12.396;2023-04-15T01:53:57;6.10;87.50
70366;DHT22;57787;48.216;12.396;2023-04-15T01:56:24;6.20;87.60
70366;DHT22;57787;48.216;12.396;2023-04-15T01:58:51;6.10;87.50
70366;DHT22;57787;48.216;12.396;2023-04-15T02:01:18;6.10;87.40
70366;DHT22;57787;48.216;12.396;2023-04-15T02:03:45;6.10;87.60
70366;DHT22;57787;48.216;12.396;2023-04-15T02:06:13;6.10;87.60
70366;DHT22;57787;48.216;12.396;2023-04-15T02:08:40;6.10;87.60
70366;DHT22;57787;48.216;12.396;2023-04-15T02:11:07;6.10;87.70
70366;DHT22;57787;48.216;12.396;2023-04-15T02:13:34;6.10;87.70
70366;DHT22;57787;48.216;12.396;2023-04-15T02:16:00;6.10;87.50
70366;DHT22;57787;48.216;12.396;2023-04-15T02:18:27;6.10;87.80
70366;DHT22;57787;48.216;12.396;2023-04-15T02:20:55;6.10;87.80
70366;DHT22;57787;48.216;12.396;2023-04-15T02:23:24;6.10;87.80
70366;DHT22;57787;48.216;12.396;2023-04-15T02:25:51;6.10;87.80
70366;DHT22;57787;48.216;12.396;2023-04-15T02:28:20;6.10;87.70
70366;DHT22;57787;48.216;12.396;2023-04-15T02:30:47;6.10;87.80
70366;DHT22;57787;48.216;12.396;2023-04-15T02:33:16;6.10;87.70
70366;DHT22;57787;48.216;12.396;2023-04-15T02:35:43;6.10;87.70
70366;DHT22;57787;48.216;12.396;2023-04-15T02:38:11;6.10;87.70
70366;DHT22;57787;48.216;12.396;2023-04-15T02:40:39;6.10;87.80
70366;DHT22;57787;48.216;12.396;2023-04-15T02:43:05;6.10;87.90
70366;DHT22;57787;48.216;12.396;2023-04-15T02:45:32;6.10;87.90
70366;DHT22;57787;48.216;12.396;2023-04-15T02:48:00;6.10;87.60
70366;DHT22;57787;48.216;12.396;2023-04-15T02:50:32;6.20;87.60
70366;DHT22;57787;48.216;12.396;2023-04-15T02:52:59;6.10;87.60
70366;DHT22;57787;48.216;12.396;2023-04-15T02:55:27;6.10;87.90
70366;DHT22;57787;48.216;12.396;2023-04-15T02:57:54;6.20;87.70
70366;DHT22;57787;48.216;12.396;2023-04-15T03:00:21;6.20;87.60
70366;DHT22;57787;48.216;12.396;2023-04-15T03:02:50;6.20;88.00
70366;DHT22;57787;48.216;12.396;2023-04-15T03:05:22;6.20;88.20
70366;DHT22;57787;48.216;12.396;2023-04-15T03:07:51;6.20;88.10
70366;DHT22;57787;48.216;12.396;2023-04-15T03:10:17;6.20;88.00
70366;DHT22;57787;48.216;12.396;2023-04-15T03:12:44;6.20;88.20
70366;DHT22;57787;48.216;12.396;2023-04-15T03:15:11;6.20;88.10
70366;DHT22;57787;48.216;12.396;2023-04-15T03:17:38;6.20;88.10
70366;DHT22;57787;48.216;12.396;2023-04-15T03:20:05;6.20;88.40
70366;DHT22;57787;48.216;12.396;2023-04-15T03:22:32;6.20;88.30
70366;DHT22;57787;48.216;12.396;2023-04-15T03:24:58;6.20;88.30
70366;DHT22;57787;48.216;12.396;2023-04-15T03:27:25;6.20;88.20
70366;DHT22;57787;48.216;12.396;2023-04-15T03:29:52;6.20;87.90
70366;DHT22;57787;48.216;12.396;2023-04-15T03:32:19;6.20;88.20
70366;DHT22;57787;48.216;12.396;2023-04-15T03:34:46;6.20;88.30
70366;DHT22;57787;48.216;12.396;2023-04-15T03:37:13;6.20;88.30
70366;DHT22;57787;48.216;12.396;2023-04-15T03:39:40;6.20;88.40
70366;DHT22;57787;48.216;12.396;2023-04-15T03:42:07;6.20;88.30
70366;DHT22;57787;48.216;12.396;2023-04-15T03:44:34;6.20;88.20
70366;DHT22;57787;48.216;12.396;2023-04-15T03:47:00;6.20;88.00
70366;DHT22;57787;48.216;12.396;2023-04-15T03:49:27;6.20;88.10
70366;DHT22;57787;48.216;12.396;2023-04-15T03:51:54;6.20;88.10
70366;DHT22;57787;48.216;12.396;2023-04-15T03:54:21;6.20;87.90
70366;DHT22;57787;48.216;12.396;2023-04-15T03:56:48;6.20;88.20
70366;DHT22;57787;48.216;12.396;2023-04-15T03:59:14;6.20;88.40
70366;DHT22;57787;48.216;12.396;2023-04-15T04:01:43;6.20;88.40
70366;DHT22;57787;48.216;12.396;2023-04-15T04:04:10;6.20;88.30
70366;DHT22;57787;48.216;12.396;2023-04-15T04:06:39;6.10;88.10
70366;DHT22;57787;48.216;12.396;2023-04-15T04:09:06;6.10;88.00
70366;DHT22;57787;48.216;12.396;2023-04-15T04:11:32;6.10;88.10
70366;DHT22;57787;48.216;12.396;2023-04-15T04:14:01;6.10;88.10
70366;DHT22;57787;48.216;12.396;2023-04-15T04:16:29;6.10;88.10
70366;DHT22;57787;48.216;12.396;2023-04-15T04:18:56;6.10;88.40
70366;DHT22;57787;48.216;12.396;2023-04-15T04:21:22;6.10;88.20
70366;DHT22;57787;48.216;12.396;2023-04-15T04:23:49;6.10;88.20
70366;DHT22;57787;48.216;12.396;2023-04-15T04:26:16;6.10;88.20
70366;DHT22;57787;48.216;12.396;2023-04-15T04:28:43;6.10;88.20
70366;DHT22;57787;48.216;12.396;2023-04-15T04:31:10;6.10;88.10
70366;DHT22;57787;48.216;12.396;2023-04-15T04:33:37;6.10;88.20
70366;DHT22;57787;48.216;12.396;2023-04-15T04:36:04;6.10;88.30
70366;DHT22;57787;48.216;12.396;2023-04-15T04:38:31;6.10;88.30
70366;DHT22;57787;48.216;12.396;2023-04-15T04:40:57;6.10;88.20
70366;DHT22;57787;48.216;12.396;2023-04-15T04:43:25;6.10;88.20
70366;DHT22;57787;48.216;12.396;2023-04-15T04:45:53;6.10;88.20
70366;DHT22;57787;48.216;12.396;2023-04-15T04:48:20;6.20;88.10
70366;DHT22;57787;48.216;12.396;2023-04-15T04:50:46;6.20;88.10
70366;DHT22;57787;48.216;12.396;2023-04-15T04:53:13;6.20;88.00
70366;DHT22;57787;48.216;12.396;2023-04-15T04:55:40;6.20;88.00
70366;DHT22;57787;48.216;12.396;2023-04-15T04:58:10;6.20;88.00
70366;DHT22;57787;48.216;12.396;2023-04-15T05:00:37;6.30;88.10
70366;DHT22;57787;48.216;12.396;2023-04-15T05:03:04;6.30;88.10
70366;DHT22;57787;48.216;12.396;2023-04-15T05:05:30;6.30;88.00
70366;DHT22;57787;48.216;12.396;2023-04-15T05:07:57;6.30;88.10
70366;DHT22;57787;48.216;12.396;2023-04-15T05:10:24;6.30;87.80
70366;DHT22;57787;48.216;12.396;2023-04-15T05:12:51;6.40;87.80
70366;DHT22;57787;48.216;12.396;2023-04-15T05:15:18;6.40;87.90
70366;DHT22;57787;48.216;12.396;2023-04-15T05:17:46;6.40;88.20
70366;DHT22;57787;48.216;12.396;2023-04-15T05:20:12;6.50;88.00
70366;DHT22;57787;48.216;12.396;2023-04-15T05:22:40;6.50;87.90
70366;DHT22;57787;48.216;12.396;2023-04-15T05:25:06;6.50;88.00
70366;DHT22;57787;48.216;12.396;2023-04-15T05:27:34;6.50;87.90
70366;DHT22;57787;48.216;12.396;2023-04-15T05:30:01;6.50;88.20
70366;DHT22;57787;48.216;12.396;2023-04-15T05:32:28;6.50;88.10
70366;DHT22;57787;48.216;12.396;2023-04-15T05:34:55;6.60;87.60
70366;DHT22;57787;48.216;12.396;2023-04-15T05:37:21;6.60;87.60
70366;DHT22;57787;48.216;12.396;2023-04-15T05:39:48;6.60;87.90
70366;DHT22;57787;48.216;12.396;2023-04-15T05:42:15;6.60;87.70
70366;DHT22;57787;48.216;12.396;2023-04-15T05:44:42;6.60;87.90
70366;DHT22;57787;48.216;12.396;2023-04-15T05:47:09;6.60;87.70
70366;DHT22;57787;48.216;12.396;2023-04-15T05:49:36;6.60;87.60
70366;DHT22;57787;48.216;12.396;2023-04-15T05:52:04;6.70;87.70
70366;DHT22;57787;48.216;12.396;2023-04-15T05:54:31;6.60;87.90
70366;DHT22;57787;48.216;12.396;2023-04-15T05:56:58;6.70;87.80
70366;DHT22;57787;48.216;12.396;2023-04-15T05:59:25;6.70;87.70
70366;DHT22;57787;48.216;12.396;2023-04-15T06:01:53;6.70;87.70
70366;DHT22;57787;48.216;12.396;2023-04-15T06:04:20;6.70;87.90
70366;DHT22;57787;48.216;12.396;2023-04-15T06:06:48;6.70;88.20
70366;DHT22;57787;48.216;12.396;2023-04-15T06:09:15;6.70;88.30
70366;DHT22;57787;48.216;12.396;2023-04-15T06:11:50;6.70;88.30
70366;DHT22;57787;48.216;12.396;2023-04-15T06:14:18;6.70;88.30
70366;DHT22;57787;48.216;12.396;2023-04-15T06:16:44;6.80;88.30
70366;DHT22;57787;48.216;12.396;2023-04-15T06:19:11;6.80;88.20
70366;DHT22;57787;48.216;12.396;2023-04-15T06:21:39;6.90;88.40
70366;DHT22;57787;48.216;12.396;2023-04-15T06:24:06;6.90;88.20
70366;DHT22;57787;48.216;12.396;2023-04-15T06:26:33;7.00;88.20
70366;DHT22;57787;48.216;12.396;2023-04-15T06:29:00;7.00;88.40
70366;DHT22;57787;48.216;12.396;2023-04-15T06:31:28;7.10;88.00
70366;DHT22;57787;48.216;12.396;2023-04-15T06:33:55;7.10;88.00
70366;DHT22;57787;48.216;12.396;2023-04-15T06:36:22;7.20;88.00
70366;DHT22;57787;48.216;12.396;2023-04-15T06:38:49;7.20;87.80
70366;DHT22;57787;48.216;12.396;2023-04-15T06:41:16;7.20;87.30
70366;DHT22;57787;48.216;12.396;2023-04-15T06:43:43;7.20;87.40
70366;DHT22;57787;48.216;12.396;2023-04-15T06:46:10;7.20;87.60
70366;DHT22;57787;48.216;12.396;2023-04-15T06:48:37;7.20;87.50
70366;DHT22;57787;48.216;12.396;2023-04-15T06:51:04;7.30;87.30
70366;DHT22;57787;48.216;12.396;2023-04-15T06:53:31;7.20;87.30
70366;DHT22;57787;48.216;12.396;2023-04-15T06:56:00;7.30;86.80
70366;DHT22;57787;48.216;12.396;2023-04-15T06:58:27;7.30;86.90
70366;DHT22;57787;48.216;12.396;2023-04-15T07:00:55;7.40;86.90
70366;DHT22;57787;48.216;12.396;2023-04-15T07:03:22;7.40;87.20
70366;DHT22;57787;48.216;12.396;2023-04-15T07:05:49;7.40;86.70
70366;DHT22;57787;48.216;12.396;2023-04-15T07:08:16;7.40;86.70
70366;DHT22;57787;48.216;12.396;2023-04-15T07:10:43;7.40;85.90
70366;DHT22;57787;48.216;12.396;2023-04-15T07:13:10;7.50;86.40
70366;DHT22;57787;48.216;12.396;2023-04-15T07:15:37;7.40;86.30
70366;DHT22;57787;48.216;12.396;2023-04-15T07:18:05;7.50;86.10
70366;DHT22;57787;48.216;12.396;2023-04-15T07:20:32;7.50;85.80
70366;DHT22;57787;48.216;12.396;2023-04-15T07:22:59;7.60;86.10
70366;DHT22;57787;48.216;12.396;2023-04-15T07:25:26;7.60;84.80
70366;DHT22;57787;48.216;12.396;2023-04-15T07:27:54;7.60;85.50
70366;DHT22;57787;48.216;12.396;2023-04-15T07:30:22;7.60;85.70
70366;DHT22;57787;48.216;12.396;2023-04-15T07:32:49;7.60;85.10
70366;DHT22;57787;48.216;12.396;2023-04-15T07:35:16;7.60;85.80
70366;DHT22;57787;48.216;12.396;2023-04-15T07:37:43;7.70;85.80
70366;DHT22;57787;48.216;12.396;2023-04-15T07:40:10;7.70;85.40
70366;DHT22;57787;48.216;12.396;2023-04-15T07:42:37;7.70;85.80
70366;DHT22;57787;48.216;12.396;2023-04-15T07:45:07;7.70;85.40
70366;DHT22;57787;48.216;12.396;2023-04-15T07:47:34;7.70;85.30
70366;DHT22;57787;48.216;12.396;2023-04-15T07:50:01;7.80;85.60
70366;DHT22;57787;48.216;12.396;2023-04-15T07:52:28;7.80;85.80
70366;DHT22;57787;48.216;12.396;2023-04-15T07:54:58;7.90;85.10
70366;DHT22;57787;48.216;12.396;2023-04-15T07:57:25;7.90;85.40
70366;DHT22;57787;48.216;12.396;2023-04-15T08:00:07;7.90;84.40
70366;DHT22;57787;48.216;12.396;2023-04-15T08:02:34;7.90;84.50
70366;DHT22;57787;48.216;12.396;2023-04-15T08:07:46;8.00;85.30
70366;DHT22;57787;48.216;12.396;2023-04-15T08:10:13;8.10;85.00
70366;DHT22;57787;48.216;12.396;2023-04-15T08:12:40;8.20;84.80
70366;DHT22;57787;48.216;12.396;2023-04-15T08:15:07;8.30;85.50
70366;DHT22;57787;48.216;12.396;2023-04-15T08:17:34;8.30;84.60
70366;DHT22;57787;48.216;12.396;2023-04-15T08:20:02;8.30;84.00
70366;DHT22;57787;48.216;12.396;2023-04-15T08:22:29;8.30;83.50
70366;DHT22;57787;48.216;12.396;2023-04-15T08:24:56;8.30;84.00
70366;DHT22;57787;48.216;12.396;2023-04-15T08:27:23;8.20;84.10
70366;DHT22;57787;48.216;12.396;2023-04-15T08:29:50;8.10;84.40
70366;DHT22;57787;48.216;12.396;2023-04-15T08:32:18;8.10;84.40
70366;DHT22;57787;48.216;12.396;2023-04-15T08:34:44;8.10;84.40
70366;DHT22;57787;48.216;12.396;2023-04-15T08:37:12;8.10;84.00
70366;DHT22;57787;48.216;12.396;2023-04-15T08:39:39;8.10;84.70
70366;DHT22;57787;48.216;12.396;2023-04-15T08:42:10;8.10;84.30
70366;DHT22;57787;48.216;12.396;2023-04-15T08:44:37;8.10;84.20
70366;DHT22;57787;48.216;12.396;2023-04-15T08:47:06;8.10;84.60
70366;DHT22;57787;48.216;12.396;2023-04-15T08:49:35;8.10;84.70
70366;DHT22;57787;48.216;12.396;2023-04-15T08:52:05;8.10;84.80
70366;DHT22;57787;48.216;12.396;2023-04-15T08:54:33;8.20;85.10
70366;DHT22;57787;48.216;12.396;2023-04-15T08:57:00;8.30;84.50
70366;DHT22;57787;48.216;12.396;2023-04-15T08:59:31;8.30;84.50
70366;DHT22;57787;48.216;12.396;2023-04-15T09:01:58;8.30;85.00
70366;DHT22;57787;48.216;12.396;2023-04-15T09:04:26;8.30;84.70
70366;DHT22;57787;48.216;12.396;2023-04-15T09:06:53;8.30;84.80
70366;DHT22;57787;48.216;12.396;2023-04-15T09:09:20;8.30;84.70
70366;DHT22;57787;48.216;12.396;2023-04-15T09:11:48;8.30;84.30
70366;DHT22;57787;48.216;12.396;2023-04-15T09:14:17;8.30;84.20
70366;DHT22;57787;48.216;12.396;2023-04-15T09:16:57;8.20;83.90
70366;DHT22;57787;48.216;12.396;2023-04-15T09:19:24;8.30;84.20
70366;DHT22;57787;48.216;12.396;2023-04-15T09:21:55;8.30;83.60
70366;DHT22;57787;48.216;12.396;2023-04-15T09:24:24;8.30;83.40
70366;DHT22;57787;48.216;12.396;2023-04-15T09:26:53;8.30;83.10
70366;DHT22;57787;48.216;12.396;2023-04-15T09:29:23;8.30;82.90
70366;DHT22;57787;48.216;12.396;2023-04-15T09:31:50;8.30;83.70
70366;DHT22;57787;48.216;12.396;2023-04-15T09:34:18;8.40;83.80
70366;DHT22;57787;48.216;12.396;2023-04-15T09:39:16;8.60;84.40
70366;DHT22;57787;48.216;12.396;2023-04-15T09:41:43;8.70;83.20
70366;DHT22;57787;48.216;12.396;2023-04-15T09:44:22;8.80;83.30
70366;DHT22;57787;48.216;12.396;2023-04-15T09:46:50;8.90;83.30
70366;DHT22;57787;48.216;12.396;2023-04-15T09:49:17;8.90;83.10
70366;DHT22;57787;48.216;12.396;2023-04-15T09:51:45;9.00;83.30
70366;DHT22;57787;48.216;12.396;2023-04-15T09:54:34;9.00;82.70
70366;DHT22;57787;48.216;12.396;2023-04-15T09:57:05;9.00;82.80
70366;DHT22;57787;48.216;12.396;2023-04-15T09:59:33;9.10;82.90
70366;DHT22;57787;48.216;12.396;2023-04-15T10:02:00;9.10;83.00
70366;DHT22;57787;48.216;12.396;2023-04-15T10:04:29;9.10;83.20
70366;DHT22;57787;48.216;12.396;2023-04-15T10:06:57;9.20;82.70
70366;DHT22;57787;48.216;12.396;2023-04-15T10:09:25;9.30;82.90
70366;DHT22;57787;48.216;12.396;2023-04-15T10:11:53;9.30;83.00
70366;DHT22;57787;48.216;12.396;2023-04-15T10:19:38;9.50;82.40
70366;DHT22;57787;48.216;12.396;2023-04-15T10:22:06;9.60;83.10
70366;DHT22;57787;48.216;12.396;2023-04-15T10:24:34;9.60;82.50
70366;DHT22;57787;48.216;12.396;2023-04-15T10:29:36;9.70;81.60
70366;DHT22;57787;48.216;12.396;2023-04-15T10:32:06;9.80;82.80
70366;DHT22;57787;48.216;12.396;2023-04-15T10:34:34;9.90;82.50
70366;DHT22;57787;48.216;12.396;2023-04-15T10:37:02;10.00;82.60
70366;DHT22;57787;48.216;12.396;2023-04-15T10:39:38;10.00;81.10
70366;DHT22;57787;48.216;12.396;2023-04-15T10:44:35;10.00;81.00
70366;DHT22;57787;48.216;12.396;2023-04-15T10:47:09;10.10;81.50
70366;DHT22;57787;48.216;12.396;2023-04-15T10:49:43;10.10;81.90
70366;DHT22;57787;48.216;12.396;2023-04-15T10:52:15;10.10;82.10
70366;DHT22;57787;48.216;12.396;2023-04-15T10:54:42;10.10;81.70
70366;DHT22;57787;48.216;12.396;2023-04-15T10:57:20;10.10;82.20
70366;DHT22;57787;48.216;12.396;2023-04-15T11:02:40;10.10;81.70
70366;DHT22;57787;48.216;12.396;2023-04-15T11:05:08;10.20;81.90
70366;DHT22;57787;48.216;12.396;2023-04-15T11:12:44;10.00;79.90
70366;DHT22;57787;48.216;12.396;2023-04-15T11:20:41;10.10;80.00
70366;DHT22;57787;48.216;12.396;2023-04-15T11:23:12;10.10;80.60
70366;DHT22;57787;48.216;12.396;2023-04-15T11:25:41;10.10;81.10
70366;DHT22;57787;48.216;12.396;2023-04-15T11:28:10;10.10;80.10
70366;DHT22;57787;48.216;12.396;2023-04-15T11:30:38;10.20;79.20
70366;DHT22;57787;48.216;12.396;2023-04-15T11:35:40;10.30;79.80
70366;DHT22;57787;48.216;12.396;2023-04-15T11:38:10;10.30;80.90
70366;DHT22;57787;48.216;12.396;2023-04-15T11:40:39;10.40;80.70
70366;DHT22;57787;48.216;12.396;2023-04-15T11:43:14;10.40;79.70
70366;DHT22;57787;48.216;12.396;2023-04-15T11:45:52;10.50;79.30
70366;DHT22;57787;48.216;12.396;2023-04-15T11:48:24;10.60;80.70
70366;DHT22;57787;48.216;12.396;2023-04-15T11:50:55;10.60;79.50
70366;DHT22;57787;48.216;12.396;2023-04-15T11:53:23;10.70;79.40
70366;DHT22;57787;48.216;12.396;2023-04-15T11:55:53;10.70;80.00
70366;DHT22;57787;48.216;12.396;2023-04-15T11:58:21;10.70;79.80
70366;DHT22;57787;48.216;12.396;2023-04-15T12:00:50;10.80;79.90
70366;DHT22;57787;48.216;12.396;2023-04-15T12:03:27;10.90;79.20
70366;DHT22;57787;48.216;12.396;2023-04-15T12:06:05;10.90;79.00
70366;DHT22;57787;48.216;12.396;2023-04-15T12:11:18;10.80;78.10
70366;DHT22;57787;48.216;12.396;2023-04-15T12:13:45;10.70;78.60
70366;DHT22;57787;48.216;12.396;2023-04-15T12:16:12;10.70;78.00
70366;DHT22;57787;48.216;12.396;2023-04-15T12:18:43;10.60;78.80
70366;DHT22;57787;48.216;12.396;2023-04-15T12:21:12;10.50;78.00
70366;DHT22;57787;48.216;12.396;2023-04-15T12:23:46;10.40;77.60
70366;DHT22;57787;48.216;12.396;2023-04-15T12:26:14;10.40;78.80
70366;DHT22;57787;48.216;12.396;2023-04-15T12:28:41;10.30;79.60
70366;DHT22;57787;48.216;12.396;2023-04-15T12:31:11;10.30;78.50
70366;DHT22;57787;48.216;12.396;2023-04-15T12:33:39;10.30;78.80
70366;DHT22;57787;48.216;12.396;2023-04-15T12:36:07;10.30;78.90
70366;DHT22;57787;48.216;12.396;2023-04-15T12:38:35;10.20;79.50
70366;DHT22;57787;48.216;12.396;2023-04-15T12:41:05;10.20;79.90
70366;DHT22;57787;48.216;12.396;2023-04-15T12:43:32;10.20;79.90
70366;DHT22;57787;48.216;12.396;2023-04-15T12:46:03;10.20;79.90
70366;DHT22;57787;48.216;12.396;2023-04-15T12:48:33;10.10;79.80
70366;DHT22;57787;48.216;12.396;2023-04-15T12:51:01;10.10;79.90
70366;DHT22;57787;48.216;12.396;2023-04-15T12:53:31;10.00;79.40
70366;DHT22;57787;48.216;12.396;2023-04-15T12:55:58;10.00;78.80
70366;DHT22;57787;48.216;12.396;2023-04-15T12:58:27;10.00;79.20
70366;DHT22;57787;48.216;12.396;2023-04-15T13:00:55;10.00;79.80
70366;DHT22;57787;48.216;12.396;2023-04-15T13:03:23;10.00;80.50
70366;DHT22;57787;48.216;12.396;2023-04-15T13:05:50;10.00;80.00
70366;DHT22;57787;48.216;12.396;2023-04-15T13:08:18;10.00;80.10
70366;DHT22;57787;48.216;12.396;2023-04-15T13:10:44;10.00;80.00
70366;DHT22;57787;48.216;12.396;2023-04-15T13:13:12;10.00;79.50
70366;DHT22;57787;48.216;12.396;2023-04-15T13:15:39;10.00;78.60
70366;DHT22;57787;48.216;12.396;2023-04-15T13:18:06;10.00;78.90
70366;DHT22;57787;48.216;12.396;2023-04-15T13:20:33;10.00;78.70
70366;DHT22;57787;48.216;12.396;2023-04-15T13:23:00;10.00;78.00
70366;DHT22;57787;48.216;12.396;2023-04-15T13:25:28;10.00;77.80
70366;DHT22;57787;48.216;12.396;2023-04-15T13:27:55;10.00;77.30
70366;DHT22;57787;48.216;12.396;2023-04-15T13:30:23;9.90;77.20
70366;DHT22;57787;48.216;12.396;2023-04-15T13:32:50;9.80;77.80
70366;DHT22;57787;48.216;12.396;2023-04-15T13:35:26;9.80;77.80
70366;DHT22;57787;48.216;12.396;2023-04-15T13:37:53;9.70;78.70
70366;DHT22;57787;48.216;12.396;2023-04-15T13:40:21;9.60;77.80
70366;DHT22;57787;48.216;12.396;2023-04-15T13:42:48;9.50;77.30
70366;DHT22;57787;48.216;12.396;2023-04-15T13:45:18;9.40;77.70
70366;DHT22;57787;48.216;12.396;2023-04-15T13:47:45;9.30;77.60
70366;DHT22;57787;48.216;12.396;2023-04-15T13:50:12;9.30;79.00
70366;DHT22;57787;48.216;12.396;2023-04-15T13:52:42;9.20;78.40
70366;DHT22;57787;48.216;12.396;2023-04-15T13:55:12;9.20;79.90
70366;DHT22;57787;48.216;12.396;2023-04-15T13:57:47;9.20;80.80
70366;DHT22;57787;48.216;12.396;2023-04-15T14:00:16;9.20;80.80
70366;DHT22;57787;48.216;12.396;2023-04-15T14:02:47;9.20;79.90
70366;DHT22;57787;48.216;12.396;2023-04-15T14:05:17;9.20;81.20
70366;DHT22;57787;48.216;12.396;2023-04-15T14:07:47;9.10;81.70
70366;DHT22;57787;48.216;12.396;2023-04-15T14:10:17;9.20;82.00
70366;DHT22;57787;48.216;12.396;2023-04-15T14:12:44;9.20;82.30
70366;DHT22;57787;48.216;12.396;2023-04-15T14:15:11;9.20;81.90
70366;DHT22;57787;48.216;12.396;2023-04-15T14:17:41;9.20;83.20
70366;DHT22;57787;48.216;12.396;2023-04-15T14:20:11;9.30;82.90
70366;DHT22;57787;48.216;12.396;2023-04-15T14:22:41;9.30;83.50
70366;DHT22;57787;48.216;12.396;2023-04-15T14:25:09;9.30;83.60
70366;DHT22;57787;48.216;12.396;2023-04-15T14:27:49;9.30;83.50
70366;DHT22;57787;48.216;12.396;2023-04-15T14:30:18;9.30;82.80
70366;DHT22;57787;48.216;12.396;2023-04-15T14:32:45;9.30;82.30
70366;DHT22;57787;48.216;12.396;2023-04-15T14:35:15;9.30;82.40
70366;DHT22;57787;48.216;12.396;2023-04-15T14:37:42;9.30;82.00
70366;DHT22;57787;48.216;12.396;2023-04-15T14:40:09;9.30;82.50
70366;DHT22;57787;48.216;12.396;2023-04-15T14:42:36;9.30;83.40
70366;DHT22;57787;48.216;12.396;2023-04-15T14:45:05;9.30;82.70
70366;DHT22;57787;48.216;12.396;2023-04-15T14:47:35;9.40;82.60
70366;DHT22;57787;48.216;12.396;2023-04-15T14:50:02;9.40;82.80
70366;DHT22;57787;48.216;12.396;2023-04-15T14:52:30;9.50;82.10
70366;DHT22;57787;48.216;12.396;2023-04-15T14:54:58;9.50;82.70
70366;DHT22;57787;48.216;12.396;2023-04-15T14:57:25;9.50;82.90
70366;DHT22;57787;48.216;12.396;2023-04-15T14:59:53;9.60;82.40
70366;DHT22;57787;48.216;12.396;2023-04-15T15:02:22;9.60;82.00
70366;DHT22;57787;48.216;12.396;2023-04-15T15:05:04;9.60;82.70
70366;DHT22;57787;48.216;12.396;2023-04-15T15:07:31;9.70;82.80
70366;DHT22;57787;48.216;12.396;2023-04-15T15:09:59;9.70;82.50
70366;DHT22;57787;48.216;12.396;2023-04-15T15:12:27;9.70;82.10
70366;DHT22;57787;48.216;12.396;2023-04-15T15:14:54;9.70;81.40
70366;DHT22;57787;48.216;12.396;2023-04-15T15:17:21;9.70;80.60
70366;DHT22;57787;48.216;12.396;2023-04-15T15:19:49;9.60;81.50
70366;DHT22;57787;48.216;12.396;2023-04-15T15:22:18;9.60;78.60
70366;DHT22;57787;48.216;12.396;2023-04-15T15:24:47;9.50;79.60
70366;DHT22;57787;48.216;12.396;2023-04-15T15:27:13;9.40;79.50
70366;DHT22;57787;48.216;12.396;2023-04-15T15:29:41;9.40;80.70
70366;DHT22;57787;48.216;12.396;2023-04-15T15:32:08;9.50;80.80
70366;DHT22;57787;48.216;12.396;2023-04-15T15:34:35;9.50;80.10
70366;DHT22;57787;48.216;12.396;2023-04-15T15:37:04;9.50;80.40
70366;DHT22;57787;48.216;12.396;2023-04-15T15:39:31;9.50;80.90
70366;DHT22;57787;48.216;12.396;2023-04-15T15:41:59;9.50;80.20
70366;DHT22;57787;48.216;12.396;2023-04-15T15:44:30;9.40;79.50
70366;DHT22;57787;48.216;12.396;2023-04-15T15:47:00;9.40;77.80
70366;DHT22;57787;48.216;12.396;2023-04-15T15:49:27;9.30;77.20
70366;DHT22;57787;48.216;12.396;2023-04-15T15:51:54;9.30;78.90
70366;DHT22;57787;48.216;12.396;2023-04-15T15:54:21;9.30;78.90
70366;DHT22;57787;48.216;12.396;2023-04-15T15:56:49;9.20;77.60
70366;DHT22;57787;48.216;12.396;2023-04-15T15:59:19;9.20;79.70
70366;DHT22;57787;48.216;12.396;2023-04-15T16:01:48;9.20;78.10
70366;DHT22;57787;48.216;12.396;2023-04-15T16:04:16;9.20;79.10
70366;DHT22;57787;48.216;12.396;2023-04-15T16:06:43;9.10;79.20